createdAt,value
2022-07-31T00:00:10.872Z,19.74
2022-07-31T00:05:41.792Z,20.31
2022-07-31T00:10:45.843Z,20.62
2022-07-31T00:15:51.048Z,20.79
2022-07-31T00:20:54.778Z,20.29
2022-07-31T00:25:58.996Z,20.84
2022-07-31T00:31:04.172Z,21.06
2022-07-31T00:36:08.346Z,20.03
2022-07-31T00:41:12.136Z,19.80
2022-07-31T00:46:17.193Z,19.88
2022-07-31T00:51:21.531Z,19.14
2022-07-31T00:56:25.857Z,19.61
2022-07-31T01:01:31.842Z,19.28
2022-07-31T01:06:39.712Z,19.08
2022-07-31T01:11:50.871Z,19.13
2022-07-31T01:16:58.392Z,19.19
2022-07-31T01:22:32.914Z,19.20
2022-07-31T01:27:53.441Z,19.07
2022-07-31T01:33:06.533Z,19.34
2022-07-31T01:38:12.774Z,19.97
2022-07-31T01:43:23.171Z,20.47
2022-07-31T01:48:29.158Z,20.60
2022-07-31T01:53:35.225Z,20.75
2022-07-31T01:58:41.230Z,21.08
2022-07-31T02:03:56.966Z,20.90
2022-07-31T02:09:06.375Z,20.38
2022-07-31T02:14:11.168Z,20.83
2022-07-31T02:19:16.989Z,21.00
2022-07-31T02:24:20.902Z,20.89
2022-07-31T02:29:26.010Z,20.95
2022-07-31T02:34:32.964Z,21.10
2022-07-31T02:39:38.088Z,20.42
2022-07-31T02:44:42.242Z,20.67
2022-07-31T02:49:47.781Z,20.57
2022-07-31T02:54:52.940Z,20.68
2022-07-31T02:59:56.792Z,20.40
2022-07-31T03:05:03.476Z,20.48
2022-07-31T03:10:07.658Z,20.48
2022-07-31T03:15:21.588Z,19.61
2022-07-31T03:20:27.818Z,19.67
2022-07-31T03:25:33.858Z,19.46
2022-07-31T03:30:38.367Z,19.35
2022-07-31T03:35:44.682Z,18.57
2022-07-31T03:40:49.808Z,17.79
2022-07-31T03:45:54.618Z,17.33
2022-07-31T03:51:00.295Z,17.64
2022-07-31T03:56:07.611Z,17.89
2022-07-31T04:01:12.248Z,17.66
2022-07-31T04:06:17.815Z,17.46
2022-07-31T04:11:21.478Z,17.64
2022-07-31T04:16:25.391Z,17.47
2022-07-31T04:21:30.670Z,17.35
2022-07-31T04:26:34.608Z,17.21
2022-07-31T04:31:39.311Z,17.41
2022-07-31T04:36:47.021Z,17.64
2022-07-31T04:41:51.966Z,17.44
2022-07-31T04:46:59.537Z,17.52
2022-07-31T04:52:06.173Z,17.56
2022-07-31T04:57:10.397Z,17.22
2022-07-31T05:02:14.033Z,17.93
2022-07-31T05:07:19.125Z,17.60
2022-07-31T05:12:22.928Z,18.05
2022-07-31T05:17:27.144Z,18.13
2022-07-31T05:22:58.426Z,18.40
2022-07-31T05:28:29.968Z,18.17
2022-07-31T05:33:35.035Z,17.91
2022-07-31T05:38:40.324Z,18.20
2022-07-31T05:44:02.888Z,18.39
2022-07-31T05:49:29.069Z,18.60
2022-07-31T05:54:37.590Z,17.94
2022-07-31T06:00:16.342Z,18.19
2022-07-31T06:05:22.275Z,17.78
2022-07-31T06:10:30.821Z,17.48
2022-07-31T06:15:36.781Z,18.00
2022-07-31T06:20:41.190Z,18.17
2022-07-31T06:25:46.596Z,17.64
2022-07-31T06:30:56.020Z,17.82
2022-07-31T06:35:59.850Z,18.04
2022-07-31T06:41:50.660Z,18.90
2022-07-31T06:47:18.599Z,19.18
2022-07-31T06:52:41.728Z,18.91
2022-07-31T06:57:46.862Z,18.75
2022-07-31T07:02:50.618Z,19.02
2022-07-31T07:07:54.489Z,18.65
2022-07-31T07:12:59.636Z,19.31
2022-07-31T07:18:07.048Z,19.04
2022-07-31T07:23:36.967Z,18.42
2022-07-31T07:28:54.071Z,18.67
2022-07-31T07:33:57.975Z,18.92
2022-07-31T07:39:03.375Z,19.11
2022-07-31T07:44:10.524Z,18.66
2022-07-31T07:49:15.179Z,19.18
2022-07-31T07:54:25.904Z,20.03
2022-07-31T07:59:49.506Z,20.30
2022-07-31T08:05:19.506Z,19.23
2022-07-31T08:10:23.321Z,19.21
2022-07-31T08:15:32.673Z,19.22
2022-07-31T08:20:38.186Z,19.46
2022-07-31T08:25:42.609Z,19.81
2022-07-31T08:30:47.908Z,18.77
2022-07-31T08:35:54.054Z,19.15
2022-07-31T08:40:58.137Z,19.87
2022-07-31T08:46:06.106Z,20.11
2022-07-31T08:51:14.102Z,19.65
2022-07-31T08:56:36.451Z,19.12
2022-07-31T09:01:41.610Z,19.85
2022-07-31T09:06:45.476Z,19.00
2022-07-31T09:11:54.221Z,18.22
2022-07-31T09:17:18.063Z,18.29
2022-07-31T09:22:23.196Z,19.11
2022-07-31T09:27:29.789Z,20.03
2022-07-31T09:32:35.337Z,20.26
2022-07-31T09:37:48.940Z,20.67
2022-07-31T09:43:04.996Z,20.53
2022-07-31T09:48:16.139Z,18.44
2022-07-31T09:53:43.389Z,18.04
2022-07-31T09:59:11.724Z,18.56
2022-07-31T10:04:19.175Z,19.51
2022-07-31T10:09:25.976Z,18.83
2022-07-31T10:14:45.105Z,18.30
2022-07-31T10:19:55.429Z,18.46
2022-07-31T10:25:23.019Z,18.34
2022-07-31T10:30:28.628Z,18.56
2022-07-31T10:35:44.612Z,18.47
2022-07-31T10:46:28.611Z,18.59
2022-07-31T10:51:53.791Z,18.73
2022-07-31T10:57:24.923Z,18.85
2022-07-31T11:02:49.324Z,19.93
2022-07-31T11:08:03.161Z,21.11
2022-07-31T11:13:33.703Z,20.62
2022-07-31T11:19:07.149Z,19.42
2022-07-31T11:24:15.564Z,18.71
2022-07-31T11:30:00.319Z,19.16
2022-07-31T11:34:57.625Z,19.38
2022-07-31T11:40:02.018Z,20.68
2022-07-31T11:45:12.556Z,20.04
2022-07-31T11:50:18.707Z,19.18
2022-07-31T11:55:22.768Z,18.51
2022-07-31T12:00:30.242Z,19.08
2022-07-31T12:05:45.361Z,19.09
2022-07-31T12:10:49.750Z,18.36
2022-07-31T12:15:58.749Z,18.83
2022-07-31T12:21:06.170Z,19.56
2022-07-31T12:26:13.309Z,20.10
2022-07-31T12:31:17.438Z,18.89
2022-07-31T12:36:23.075Z,18.73
2022-07-31T12:41:26.840Z,18.70
2022-07-31T12:46:37.393Z,19.14
2022-07-31T12:51:45.230Z,19.93
2022-07-31T12:56:52.562Z,19.38
2022-07-31T13:01:56.842Z,20.09
2022-07-31T13:07:05.840Z,19.95
2022-07-31T13:12:10.803Z,19.30
2022-07-31T13:17:14.720Z,18.98
2022-07-31T13:22:19.888Z,18.61
2022-07-31T13:27:23.840Z,18.86
2022-07-31T13:32:28.058Z,19.02
2022-07-31T13:37:33.231Z,18.60
2022-07-31T13:42:37.081Z,18.94
2022-07-31T13:47:51.504Z,18.74
2022-07-31T13:52:58.746Z,18.12
2022-07-31T13:58:02.754Z,18.50
2022-07-31T14:03:06.694Z,18.80
2022-07-31T14:08:32.888Z,18.51
2022-07-31T14:13:42.356Z,18.80
2022-07-31T14:18:46.700Z,19.00
2022-07-31T14:23:52.718Z,17.78
2022-07-31T14:28:56.564Z,18.17
2022-07-31T14:34:00.428Z,18.09
2022-07-31T14:39:05.900Z,17.84
2022-07-31T14:44:09.760Z,17.65
2022-07-31T14:49:13.625Z,17.76
2022-07-31T14:54:19.107Z,17.52
2022-07-31T14:59:23.136Z,17.73
2022-07-31T15:04:27.284Z,17.91
2022-07-31T15:09:33.021Z,17.90
2022-07-31T15:14:36.744Z,17.41
2022-07-31T15:19:41.408Z,17.04
2022-07-31T15:24:49.006Z,16.90
2022-07-31T15:30:05.553Z,16.89
2022-07-31T15:35:14.845Z,16.98
2022-07-31T15:40:22.929Z,16.95
2022-07-31T15:45:26.852Z,17.44
2022-07-31T15:50:30.988Z,17.07
2022-07-31T15:55:36.429Z,16.79
2022-07-31T16:00:40.742Z,17.36
2022-07-31T16:05:44.881Z,17.11
2022-07-31T16:11:02.373Z,17.40
2022-07-31T16:16:07.226Z,17.10
2022-07-31T16:21:11.188Z,17.07
2022-07-31T16:26:16.313Z,16.88
2022-07-31T16:31:29.971Z,17.09
2022-07-31T16:36:34.539Z,16.52
2022-07-31T16:41:54.734Z,16.98
2022-07-31T16:46:59.061Z,16.42
2022-07-31T16:52:02.816Z,16.96
2022-07-31T16:57:09.325Z,16.84
2022-07-31T17:02:16.701Z,16.85
2022-07-31T17:07:20.603Z,17.03
2022-07-31T17:12:26.295Z,17.26
2022-07-31T17:17:29.736Z,17.48
2022-07-31T17:22:38.064Z,17.28
2022-07-31T17:27:45.233Z,16.62
2022-07-31T17:32:48.917Z,16.20
2022-07-31T17:37:52.688Z,16.49
2022-07-31T17:42:57.922Z,16.43
2022-07-31T17:48:04.386Z,15.80
2022-07-31T17:53:08.232Z,16.17
2022-07-31T17:58:14.952Z,15.65
2022-07-31T18:03:18.539Z,15.49
2022-07-31T18:08:22.171Z,15.19
2022-07-31T18:13:27.295Z,15.21
2022-07-31T18:18:31.059Z,15.05
2022-07-31T18:23:34.868Z,15.23
2022-07-31T18:28:43.124Z,15.10
2022-07-31T18:33:47.303Z,15.35
2022-07-31T18:38:52.254Z,15.45
2022-07-31T18:43:58.245Z,15.66
2022-07-31T18:49:02.295Z,15.63
2022-07-31T18:54:06.321Z,15.58
2022-07-31T18:59:11.601Z,15.80
2022-07-31T19:04:15.513Z,15.96
2022-07-31T19:09:19.794Z,16.39
2022-07-31T19:14:25.142Z,16.41
2022-07-31T19:19:44.991Z,15.85
2022-07-31T19:24:53.113Z,15.87
2022-07-31T19:29:58.358Z,16.02
2022-07-31T19:35:02.278Z,15.99
2022-07-31T19:40:08.785Z,16.44
2022-07-31T19:45:14.015Z,15.99
2022-07-31T19:50:17.774Z,16.40
2022-07-31T19:55:25.368Z,16.60
2022-07-31T20:00:30.610Z,16.75
2022-07-31T20:05:34.371Z,16.35
2022-07-31T20:10:39.060Z,15.89
2022-07-31T20:15:52.383Z,16.39
2022-07-31T20:20:57.551Z,16.10
2022-07-31T20:26:01.955Z,15.89
2022-07-31T20:31:07.204Z,15.77
2022-07-31T20:36:20.099Z,16.17
2022-07-31T20:41:23.902Z,15.97
2022-07-31T20:46:28.941Z,15.90
2022-07-31T20:51:32.789Z,15.78
2022-07-31T20:56:36.513Z,16.12
2022-07-31T21:01:42.115Z,15.90
2022-07-31T21:06:46.116Z,15.88
2022-07-31T21:11:50.816Z,16.49
2022-07-31T21:16:55.911Z,16.15
2022-07-31T21:21:59.627Z,16.19
2022-07-31T21:27:04.493Z,15.60
2022-07-31T21:32:10.835Z,15.34
2022-07-31T21:37:16.295Z,15.20
2022-07-31T21:42:20.450Z,15.38
2022-07-31T21:47:27.172Z,15.32
2022-07-31T21:52:51.286Z,15.49
2022-07-31T21:57:57.151Z,15.17
2022-07-31T22:03:05.909Z,15.08
2022-07-31T22:08:09.766Z,15.27
2022-07-31T22:13:13.445Z,15.85
2022-07-31T22:18:19.272Z,15.25
2022-07-31T22:23:23.395Z,15.12
2022-07-31T22:28:28.269Z,15.42
2022-07-31T22:33:33.618Z,15.72
2022-07-31T22:38:38.168Z,15.39
2022-07-31T22:44:09.943Z,15.45
2022-07-31T22:49:09.062Z,15.32
2022-07-31T22:54:12.731Z,15.59
2022-07-31T22:59:16.505Z,15.29
2022-07-31T23:04:21.501Z,15.24
2022-07-31T23:09:25.282Z,15.86
2022-07-31T23:14:30.049Z,15.47
2022-07-31T23:19:35.259Z,15.43
2022-07-31T23:24:38.927Z,15.52
2022-07-31T23:29:42.686Z,15.50
2022-07-31T23:34:47.879Z,15.41
2022-07-31T23:39:51.574Z,15.42
2022-07-31T23:44:55.408Z,15.18
2022-07-31T23:50:03.721Z,15.12
2022-07-31T23:55:07.782Z,15.12
